Torrington, CT

4:38 PM EST on December 22, 2014 (GMT -0500)
Crestwood | Change Station
CLOSE
Current Station
Personal Weather Station
Location: Torrington, CT
Elevation: 843 ft
Nearby Weather Stations

Elev 843 ft 41.81 °N, 73.10 °W | Updated 2 minutes ago

Overcast
Overcast
36.2 °F
Feels Like 36 °F
N
0.0
Wind Variable Wind from NNW
Gusts 0.0 mph

Today
High -- | Low -- °F
--% Chance of Precip.
Yesterday
High -- | Low -- °F
Precip. -- in
7:17 AM 4:25 PM
New Moon, 1% visible
Pressure 30.25 in
Visibility 10.0 miles
Clouds Few 2000 ft
Overcast 3900 ft
Windchill 36 °F
Dew Point 34 °F
Humidity 92%
Rainfall 0.02 in
Snow Depth Not available.
UV 0 out of 12
Pollen .10 out of 12
Air Quality Not available.
Flu Activity Not available.
METAR KOXC 222050Z VRB04KT 10SM FEW020 OVC039 04/M01 A3025

More Conditions Fewer Conditions

Pressure 30.25 in
Visibility 10.0 miles
Clouds Few 2000 ft
Overcast 3900 ft
Windchill 36 °F
Dew Point 34 °F
Humidity 92%
Rainfall 0.02 in
Snow Depth Not available.
UV 0 out of 12
Pollen .10 out of 12
Air Quality Not available.
Flu Activity Not available.
METAR KOXC 222050Z VRB04KT 10SM FEW020 OVC039 04/M01 A3025

More Conditions Fewer Conditions

10-Day Weather Forecast

Almanac

Astronomy

Dec. 22, 2014 Rise Set
Actual Time
Civil Twilight
Nautical Twilight
Astronomical Twilight
Moon
Length of Visible Light
Length of Day
Tomorrow will be .
, % of the Moon is Illuminated

Today's Extremes

State Highs State Lows

Community

WunderPhotos

Upload Photos

1,779,683 photos uploaded!

WunderBlogs® & News

Nearby

Air Quality

  Air Quality AQ Index Pollutant
Not available.

Snow Depth

Station Depth Elevation

Earthquake Activity

City Distance Mag. Time & Date
Minimum magnitude displayed is 2.5.

Coastal Water Temperatures

Place Temperature

Nearby Weather Stations